Aviation Digital Data Service (ADDS)

Output produced by METARs form (1707 UTC 21 September 2019)
found at http://aviationweather.gov/metar/data/
 
METAR text: KARR 211652Z 19011G22KT 10SM BKN039 24/21 A3008 RMK AO2 PK WND 17026/1621 SLP181 T02390206
Conditions at: KARR (CHICAGO/AURORA , IL, US) observed 1652 UTC 21 September 2019
Temperature: 23.9°C (75°F)
Dewpoint: 20.6°C (69°F) [RH = 82%]
Pressure (altimeter): 30.08 inches Hg (1018.7 mb)
[Sea-level pressure: 1018.1 mb]
Winds: from the S (190 degrees) at 13 MPH (11 knots; 5.7 m/s)
gusting to 25 MPH (22 knots; 11.3 m/s)
Visibility: 10 or more miles (16+ km)
Ceiling: 3900 feet AGL
Clouds: broken clouds at 3900 feet AGL
Weather: no significant weather observed at this time